Time;durP1;ratioP1;P1;durP2;ratioP2;P2;SDS_P1;SDS_P2;PMS_P1;PMS_P2;Temp;Humidity;BMP_temperature;BMP_pressure;BME280_temperature;BME280_humidity;BME280_pressure;Samples;Min_cycle;Max_cycle;Signal;HPM_P1;HPM_P2
2022/09/29 00:00:35;;;;;;;11.43;3.90;;;;;;;12.77;69.66;99054.66;4990092;28;20202;-60
2022/09/29 00:03:03;;;;;;;8.20;3.73;;;;;;;12.85;69.64;99052.84;4991638;28;20228;-61
2022/09/29 00:05:30;;;;;;;9.33;4.50;;;;;;;12.92;69.16;99046.56;4991436;28;20579;-61
2022/09/29 00:07:58;;;;;;;8.50;4.23;;;;;;;12.91;69.12;99049.41;4991701;28;20716;-61
2022/09/29 00:10:26;;;;;;;6.47;4.50;;;;;;;12.85;69.59;99045.69;4990949;28;20210;-61
2022/09/29 00:12:53;;;;;;;10.63;5.40;;;;;;;12.72;70.17;99053.59;4990512;28;20268;-60
2022/09/29 00:15:21;;;;;;;14.70;6.40;;;;;;;12.50;71.12;99055.50;4991298;28;20261;-60
2022/09/29 00:17:50;;;;;;;11.63;6.00;;;;;;;12.37;71.87;99050.09;4989849;28;20225;-60
2022/09/29 00:20:38;;;;;;;9.87;4.27;;;;;;;12.32;72.46;99050.69;4990372;28;20210;-60
2022/09/29 00:23:05;;;;;;;7.47;4.03;;;;;;;12.17;73.14;99051.78;4981300;28;20209;-60
2022/09/29 00:25:33;;;;;;;12.73;4.10;;;;;;;12.24;72.89;99044.69;4990605;28;20221;-60
2022/09/29 00:28:01;;;;;;;10.10;4.30;;;;;;;12.29;72.20;99051.09;4987501;28;20677;-60
2022/09/29 00:30:28;;;;;;;9.57;4.70;;;;;;;12.22;72.68;99052.88;4995455;28;20213;-61
2022/09/29 00:32:57;;;;;;;10.33;4.30;;;;;;;12.21;72.98;99051.22;4993516;28;20240;-60
2022/09/29 00:35:25;;;;;;;7.03;3.70;;;;;;;12.27;73.07;99057.59;4999172;28;20224;-62
2022/09/29 00:37:53;;;;;;;8.60;4.10;;;;;;;12.24;72.83;99053.47;4990303;28;20209;-61
2022/09/29 00:40:20;;;;;;;9.07;3.80;;;;;;;12.26;73.48;99053.28;4988862;28;20210;-61
2022/09/29 00:42:48;;;;;;;6.93;3.90;;;;;;;12.18;73.81;99056.09;4990056;28;20321;-60
2022/09/29 00:45:22;;;;;;;10.37;3.60;;;;;;;12.12;74.34;99051.56;4992295;28;20212;-62
2022/09/29 00:47:58;;;;;;;7.37;3.93;;;;;;;12.14;74.43;99053.00;4993312;28;20210;-60
2022/09/29 00:50:34;;;;;;;5.97;3.93;;;;;;;12.17;74.20;99052.63;4993336;28;20277;-61
2022/09/29 00:53:07;;;;;;;13.63;4.50;;;;;;;12.11;74.36;99053.38;4993888;28;20597;-60
2022/09/29 00:55:38;;;;;;;8.93;3.93;;;;;;;12.15;74.44;99051.16;4990699;28;20629;-60
2022/09/29 00:58:09;;;;;;;6.50;3.53;;;;;;;12.01;74.73;99047.59;4992898;28;20254;-61
2022/09/29 01:00:37;;;;;;;7.57;3.60;;;;;;;11.84;75.88;99048.84;4993245;28;20301;-61
2022/09/29 01:03:11;;;;;;;8.53;3.97;;;;;;;11.75;76.28;99042.03;4992361;28;20219;-61
2022/09/29 01:05:47;;;;;;;9.13;3.60;;;;;;;11.74;76.63;99037.69;4991161;28;20214;-60
2022/09/29 01:08:20;;;;;;;8.20;3.90;;;;;;;11.93;75.88;99047.72;4992681;28;20271;-62
2022/09/29 01:10:50;;;;;;;10.60;3.73;;;;;;;12.05;74.99;99046.16;4990891;28;20204;-62
2022/09/29 01:13:18;;;;;;;7.57;3.97;;;;;;;12.08;74.58;99043.13;4993966;28;20279;-60
2022/09/29 01:15:46;;;;;;;10.57;3.77;;;;;;;12.09;74.51;99039.47;4991939;28;20206;-61
2022/09/29 01:18:14;;;;;;;10.83;3.80;;;;;;;12.18;74.08;99043.63;4993318;28;20209;-61
2022/09/29 01:20:51;;;;;;;7.83;4.00;;;;;;;12.24;73.80;99048.16;4992646;28;20630;-59
2022/09/29 01:24:08;;;;;;;8.20;3.60;;;;;;;12.25;73.41;99046.34;4993612;28;20213;-60
2022/09/29 01:27:10;;;;;;;9.33;5.20;;;;;;;12.07;74.15;99044.97;4982503;28;20238;-60
2022/09/29 01:30:22;;;;;;;9.50;3.97;;;;;;;12.03;74.93;99042.91;4998691;28;20212;-61
2022/09/29 01:33:17;;;;;;;10.07;4.37;;;;;;;12.18;74.48;99048.94;4925271;28;1403851;-61
2022/09/29 01:35:55;;;;;;;8.07;4.10;;;;;;;12.32;73.65;99048.03;4994277;28;20213;-60
2022/09/29 01:38:36;;;;;;;7.83;3.97;;;;;;;12.30;73.12;99044.75;4993223;28;20551;-62
2022/09/29 01:41:10;;;;;;;9.63;4.03;;;;;;;12.24;73.74;99045.50;4991123;28;20876;-61
2022/09/29 01:43:46;;;;;;;7.67;4.33;;;;;;;12.21;73.88;99037.94;4992413;28;20212;-61
2022/09/29 01:46:21;;;;;;;9.53;3.83;;;;;;;12.27;73.38;99047.78;4993671;28;20217;-61
2022/09/29 01:48:54;;;;;;;8.33;4.00;;;;;;;12.29;73.44;99045.78;4989959;28;20201;-62
2022/09/29 01:51:25;;;;;;;9.60;4.77;;;;;;;12.36;73.14;99043.97;4991338;28;20766;-62
2022/09/29 01:53:57;;;;;;;8.87;4.30;;;;;;;12.35;72.85;99052.97;4993776;28;20662;-61
2022/09/29 01:56:29;;;;;;;8.47;4.83;;;;;;;12.24;73.58;99058.78;4993472;28;20224;-60
2022/09/29 01:59:04;;;;;;;10.33;5.00;;;;;;;12.27;73.57;99058.41;4994055;28;20205;-60
2022/09/29 02:01:37;;;;;;;13.90;5.73;;;;;;;12.27;73.29;99058.41;4992585;28;20208;-59
2022/09/29 02:04:11;;;;;;;8.03;5.43;;;;;;;12.21;73.46;99059.19;4993585;28;20195;-61
2022/09/29 02:06:47;;;;;;;12.47;5.67;;;;;;;12.14;73.54;99047.69;4993862;28;20210;-60
2022/09/29 02:09:22;;;;;;;10.17;5.17;;;;;;;12.04;74.39;99060.50;4993154;28;20661;-60
2022/09/29 02:11:52;;;;;;;9.70;4.63;;;;;;;11.93;74.98;99058.34;4992714;28;20300;-62
2022/09/29 02:14:23;;;;;;;10.70;4.73;;;;;;;11.91;75.49;99065.66;4992505;28;20258;-63
2022/09/29 02:16:56;;;;;;;10.57;4.50;;;;;;;11.90;76.42;99064.03;4992957;28;20208;-60
2022/09/29 02:19:29;;;;;;;9.83;5.47;;;;;;;11.80;76.14;99068.81;4993386;28;20210;-61
2022/09/29 02:21:57;;;;;;;9.50;5.40;;;;;;;11.56;77.52;99070.81;4992181;28;20217;-62
2022/09/29 02:24:25;;;;;;;10.33;5.53;;;;;;;11.44;78.28;99072.31;4996593;28;20340;-61
2022/09/29 02:26:53;;;;;;;10.83;5.77;;;;;;;11.32;79.18;99073.81;4992139;28;20216;-60
2022/09/29 02:29:21;;;;;;;8.57;5.63;;;;;;;11.40;79.55;99083.50;4996808;28;20606;-60
2022/09/29 02:31:49;;;;;;;11.13;6.47;;;;;;;11.53;78.26;99081.81;4993159;28;20693;-61
2022/09/29 02:34:20;;;;;;;12.37;7.50;;;;;;;11.42;78.28;99079.66;4993423;28;20208;-61
2022/09/29 02:36:57;;;;;;;14.93;7.37;;;;;;;11.23;79.19;99069.63;4992775;28;20215;-62
2022/09/29 02:39:35;;;;;;;11.13;6.47;;;;;;;11.04;80.42;99065.72;4991585;28;20249;-61
2022/09/29 02:42:17;;;;;;;11.47;6.57;;;;;;;10.96;80.90;99072.97;4992496;28;20214;-60
2022/09/29 02:45:00;;;;;;;11.97;7.80;;;;;;;10.86;81.62;99070.59;4993259;28;20680;-61
2022/09/29 02:47:56;;;;;;;13.10;7.77;;;;;;;10.83;82.15;99077.06;4992969;28;20216;-59
2022/09/29 02:50:47;;;;;;;11.87;7.10;;;;;;;10.80;82.39;99069.50;4992624;28;20276;-60
2022/09/29 02:53:26;;;;;;;15.27;7.53;;;;;;;10.76;82.85;99072.69;4991265;28;20599;-61
2022/09/29 02:56:02;;;;;;;16.10;8.03;;;;;;;10.70;83.53;99079.56;4992743;28;20207;-61
2022/09/29 02:58:35;;;;;;;16.37;7.30;;;;;;;10.68;83.95;99078.91;4992612;28;20622;-60
2022/09/29 03:01:04;;;;;;;11.63;7.27;;;;;;;10.82;83.30;99078.06;4991801;28;20365;-61
2022/09/29 03:03:32;;;;;;;15.50;8.10;;;;;;;10.79;83.36;99073.16;4992244;28;20211;-61
2022/09/29 03:05:59;;;;;;;12.67;7.87;;;;;;;10.79;83.19;99073.16;4991806;28;20837;-61
2022/09/29 03:08:28;;;;;;;14.53;8.43;;;;;;;10.89;83.11;99073.69;4991523;28;20210;-60
2022/09/29 03:10:56;;;;;;;15.53;8.37;;;;;;;10.90;82.97;99075.34;4991879;28;20207;-61
2022/09/29 03:13:24;;;;;;;12.70;7.40;;;;;;;10.97;82.27;99071.94;4992669;28;20234;-59
2022/09/29 03:15:51;;;;;;;13.03;8.23;;;;;;;11.10;81.91;99070.28;4983117;28;20656;-62
2022/09/29 03:18:21;;;;;;;12.23;7.13;;;;;;;11.12;81.12;99070.09;4988236;28;20241;-61
2022/09/29 03:20:49;;;;;;;12.67;7.60;;;;;;;11.05;81.55;99072.69;4989551;28;20669;-61
2022/09/29 03:23:16;;;;;;;12.53;7.67;;;;;;;10.99;82.11;99075.25;4996462;28;20218;-61
2022/09/29 03:25:45;;;;;;;16.40;8.00;;;;;;;10.98;81.97;99071.78;4989405;28;20580;-61
2022/09/29 03:28:15;;;;;;;14.47;7.77;;;;;;;10.91;82.71;99071.66;4992222;28;20598;-62
2022/09/29 03:30:43;;;;;;;12.30;7.93;;;;;;;10.85;83.47;99075.06;4988271;28;20212;-61
2022/09/29 03:33:12;;;;;;;17.53;8.43;;;;;;;10.88;83.67;99063.28;4990793;28;20242;-62
2022/09/29 03:35:39;;;;;;;15.67;8.87;;;;;;;10.84;83.92;99070.75;4991594;28;20245;-62
2022/09/29 03:38:11;;;;;;;15.60;7.93;;;;;;;10.82;84.31;99072.78;4990025;28;20576;-62
2022/09/29 03:40:38;;;;;;;13.90;8.50;;;;;;;10.81;84.44;99068.50;4991465;28;20210;-60
2022/09/29 03:43:07;;;;;;;14.90;8.27;;;;;;;10.82;84.52;99064.81;4989032;28;20206;-60
2022/09/29 03:45:35;;;;;;;14.77;8.83;;;;;;;10.83;85.13;99068.28;4990707;28;20234;-61
2022/09/29 03:48:03;;;;;;;20.70;10.00;;;;;;;11.00;84.65;99076.88;4991059;28;20302;-61
2022/09/29 03:50:31;;;;;;;19.83;9.60;;;;;;;11.15;83.48;99077.69;4991462;28;20215;-62
2022/09/29 03:52:58;;;;;;;30.77;11.57;;;;;;;11.16;83.62;99068.72;4991496;28;20565;-60
2022/09/29 03:55:26;;;;;;;25.97;11.90;;;;;;;11.22;83.55;99070.63;4991637;28;20213;-61
2022/09/29 03:57:53;;;;;;;25.10;12.60;;;;;;;11.32;83.24;99073.81;4991300;28;20216;-61
2022/09/29 04:00:22;;;;;;;22.80;11.93;;;;;;;11.36;83.48;99074.25;4990445;28;20831;-61
2022/09/29 04:02:50;;;;;;;26.83;12.73;;;;;;;11.32;83.86;99073.81;4991392;28;20205;-60
2022/09/29 04:05:19;;;;;;;24.33;13.03;;;;;;;11.28;84.50;99073.34;4991521;28;20219;-61
2022/09/29 04:07:46;;;;;;;24.67;13.07;;;;;;;11.31;84.63;99073.00;5004970;28;20218;-61
2022/09/29 04:10:14;;;;;;;29.57;13.53;;;;;;;11.43;83.61;99076.00;4991175;28;20229;-61
2022/09/29 04:12:42;;;;;;;26.37;12.90;;;;;;;11.50;83.49;99068.94;4991526;28;20245;-61
2022/09/29 04:15:10;;;;;;;24.73;13.17;;;;;;;11.55;83.30;99066.50;4990599;28;20294;-61
2022/09/29 04:17:39;;;;;;;26.87;14.13;;;;;;;11.64;82.55;99068.03;4991309;28;20215;-61
2022/09/29 04:20:08;;;;;;;27.07;13.63;;;;;;;11.61;82.66;99063.09;4990571;28;20290;-60
2022/09/29 04:22:35;;;;;;;28.13;13.97;;;;;;;11.63;82.76;99076.19;4990091;28;20211;-60
2022/09/29 04:25:03;;;;;;;30.23;15.87;;;;;;;11.61;83.07;99079.03;4986726;28;20220;-60
2022/09/29 04:27:31;;;;;;;36.03;14.47;;;;;;;11.69;82.88;99081.59;4989824;28;20222;-60
2022/09/29 04:29:58;;;;;;;27.47;15.23;;;;;;;11.76;82.29;99080.84;4995545;28;20219;-60
2022/09/29 04:32:26;;;;;;;29.47;15.10;;;;;;;11.83;82.11;99092.34;4990853;28;20724;-61
2022/09/29 04:34:55;;;;;;;36.13;17.50;;;;;;;11.77;82.26;99090.47;4991344;28;20263;-60
2022/09/29 04:37:23;;;;;;;31.43;16.90;;;;;;;11.79;82.49;99091.09;4990602;28;20208;-61
2022/09/29 04:39:52;;;;;;;32.83;16.13;;;;;;;11.77;82.89;99106.41;4991120;28;20216;-60
2022/09/29 04:42:20;;;;;;;32.20;15.80;;;;;;;11.74;83.58;99101.44;4988170;28;20276;-60
2022/09/29 04:44:48;;;;;;;31.67;16.23;;;;;;;11.75;82.96;99101.28;4990843;28;20228;-61
2022/09/29 04:47:15;;;;;;;32.83;16.47;;;;;;;11.70;83.42;99104.44;4991088;28;20244;-60
2022/09/29 04:49:44;;;;;;;38.23;16.67;;;;;;;11.74;83.15;99101.44;4990586;28;20213;-61
2022/09/29 04:52:13;;;;;;;33.83;16.70;;;;;;;11.85;82.44;99107.09;4990257;28;20221;-61
2022/09/29 04:54:41;;;;;;;30.67;15.97;;;;;;;11.81;82.44;99107.66;4990731;28;20240;-62
2022/09/29 04:57:09;;;;;;;32.13;16.93;;;;;;;11.84;82.43;99099.31;4990052;28;20247;-61
2022/09/29 04:59:37;;;;;;;30.33;17.23;;;;;;;11.80;82.98;99101.53;4990678;28;20216;-61
2022/09/29 05:02:05;;;;;;;35.13;17.63;;;;;;;11.73;83.40;99102.44;4988323;28;20268;-61
2022/09/29 05:04:32;;;;;;;37.57;18.90;;;;;;;11.75;83.77;99101.28;4989641;28;20214;-61
2022/09/29 05:07:00;;;;;;;33.70;16.33;;;;;;;11.85;83.35;99101.78;4983921;28;20285;-61
2022/09/29 05:09:29;;;;;;;39.70;18.23;;;;;;;11.87;82.72;99099.78;4991132;28;20222;-61
2022/09/29 05:12:01;;;;;;;41.70;16.97;;;;;;;11.66;83.38;99097.88;4982874;28;20297;-61
2022/09/29 05:14:28;;;;;;;34.43;16.67;;;;;;;11.57;84.81;99103.50;4990866;28;20237;-60
2022/09/29 05:16:56;;;;;;;34.77;16.07;;;;;;;11.56;84.80;99101.84;4990442;28;20228;-61
2022/09/29 05:19:24;;;;;;;32.90;16.03;;;;;;;11.66;84.42;99105.84;4991115;28;20327;-60
2022/09/29 05:21:52;;;;;;;28.73;16.13;;;;;;;11.70;83.53;99109.75;4990078;28;20208;-61
2022/09/29 05:24:19;;;;;;;27.93;14.93;;;;;;;11.68;83.68;99113.63;4990509;28;20271;-61
2022/09/29 05:26:48;;;;;;;30.13;14.57;;;;;;;11.79;83.10;99117.63;4986746;28;20701;-61
2022/09/29 05:29:19;;;;;;;25.77;14.20;;;;;;;11.77;82.64;99125.81;4990542;28;20747;-61
2022/09/29 05:31:47;;;;;;;29.40;14.23;;;;;;;11.72;82.70;99120.19;4992576;28;20232;-60
2022/09/29 05:34:14;;;;;;;27.40;14.33;;;;;;;11.76;82.67;99120.69;4993721;28;20236;-60
2022/09/29 05:36:42;;;;;;;31.67;15.70;;;;;;;11.83;82.22;99116.25;4993933;28;20222;-60
2022/09/29 05:39:10;;;;;;;31.03;16.87;;;;;;;11.80;82.17;99120.09;4992821;28;20215;-61
2022/09/29 05:41:38;;;;;;;31.90;16.30;;;;;;;11.80;82.30;99121.94;4992821;28;20299;-61
2022/09/29 05:44:07;;;;;;;26.23;14.97;;;;;;;11.83;81.85;99119.75;4992888;28;20250;-62
2022/09/29 05:46:35;;;;;;;30.93;16.97;;;;;;;11.81;82.43;99123.59;4993903;28;20272;-60
2022/09/29 05:49:03;;;;;;;28.13;15.63;;;;;;;11.78;82.65;99124.00;4993912;28;20218;-61
2022/09/29 05:51:30;;;;;;;29.37;16.57;;;;;;;11.70;82.85;99117.72;4993702;28;20219;-60
2022/09/29 05:53:58;;;;;;;29.50;16.17;;;;;;;11.64;83.15;99125.63;4992949;28;20239;-60
2022/09/29 05:56:27;;;;;;;28.63;15.83;;;;;;;11.66;83.61;99126.28;4993748;28;20215;-62
2022/09/29 05:58:55;;;;;;;30.77;16.77;;;;;;;11.80;82.95;99132.56;4993857;28;20268;-61
2022/09/29 06:01:26;;;;;;;29.87;16.30;;;;;;;11.85;82.39;99127.53;4993253;28;20240;-61
2022/09/29 06:03:54;;;;;;;35.37;17.60;;;;;;;11.83;81.70;99130.38;4993386;28;20600;-61
2022/09/29 06:06:23;;;;;;;32.97;16.67;;;;;;;11.75;82.06;99137.63;4993605;28;20286;-61
2022/09/29 06:08:51;;;;;;;32.50;16.40;;;;;;;11.65;82.83;99128.09;4993253;28;20224;-61
2022/09/29 06:11:22;;;;;;;37.33;18.20;;;;;;;11.76;82.42;99126.00;4993092;28;20213;-61
2022/09/29 06:13:51;;;;;;;29.77;16.53;;;;;;;11.87;81.47;99131.66;4993042;28;20234;-61
2022/09/29 06:16:21;;;;;;;35.70;16.90;;;;;;;11.82;82.05;99141.19;4993139;28;20213;-61
2022/09/29 06:18:50;;;;;;;30.70;16.30;;;;;;;11.83;81.86;99140.16;4993324;28;20207;-61
2022/09/29 06:21:20;;;;;;;37.70;16.50;;;;;;;11.88;81.38;99143.88;4993130;28;20220;-61
2022/09/29 06:23:47;;;;;;;37.13;19.77;;;;;;;11.88;80.95;99153.69;4992198;28;20210;-61
2022/09/29 06:26:17;;;;;;;30.43;16.27;;;;;;;11.66;82.45;99150.16;4989318;28;20913;-61
2022/09/29 06:28:50;;;;;;;31.70;16.07;;;;;;;11.54;83.13;99149.81;4990204;28;20228;-61
2022/09/29 06:31:19;;;;;;;31.73;16.67;;;;;;;11.54;83.73;99149.00;4992045;28;20271;-61
2022/09/29 06:33:47;;;;;;;30.03;16.83;;;;;;;11.53;83.85;99158.78;4993125;28;20246;-61
2022/09/29 06:39:04;;;;;;;27.30;15.97;;;;;;;11.62;83.12;99157.66;4993092;28;20286;-61
2022/09/29 06:41:33;;;;;;;30.67;16.00;;;;;;;11.67;82.36;99152.63;4991879;28;20734;-62
2022/09/29 06:44:01;;;;;;;29.13;16.00;;;;;;;11.65;82.56;99149.34;4989904;28;20209;-61
2022/09/29 06:46:29;;;;;;;32.33;16.77;;;;;;;11.74;82.23;99157.19;4979403;28;20271;-60
2022/09/29 06:48:57;;;;;;;31.00;16.37;;;;;;;11.83;82.01;99151.63;4991612;28;20270;-61
2022/09/29 06:51:26;;;;;;;32.03;17.17;;;;;;;11.92;81.64;99154.97;4988196;28;20211;-61
2022/09/29 06:54:10;;;;;;;30.93;15.90;;;;;;;11.84;81.31;99155.09;4986657;28;20230;-60
2022/09/29 06:56:39;;;;;;;26.83;15.70;;;;;;;11.69;81.71;99165.72;4992623;28;20204;-60
2022/09/29 06:59:07;;;;;;;27.77;15.93;;;;;;;11.76;81.33;99163.19;4992989;28;20254;-59
2022/09/29 07:01:35;;;;;;;29.70;16.37;;;;;;;11.81;80.93;99160.78;4992069;28;20256;-61
2022/09/29 07:04:03;;;;;;;27.53;15.90;;;;;;;11.76;81.00;99165.84;4991648;28;20203;-61
2022/09/29 07:06:31;;;;;;;29.63;15.80;;;;;;;11.69;81.21;99166.56;4991808;28;20216;-60
2022/09/29 07:09:00;;;;;;;29.80;15.93;;;;;;;11.68;81.71;99175.53;4982401;28;20213;-62
2022/09/29 07:11:28;;;;;;;31.97;16.80;;;;;;;11.76;81.53;99171.97;4992053;28;20235;-60
2022/09/29 07:13:56;;;;;;;28.90;16.23;;;;;;;11.79;81.74;99170.75;4992839;28;20260;-62
2022/09/29 07:16:23;;;;;;;31.47;16.13;;;;;;;11.97;80.63;99173.81;4992347;28;20219;-61
2022/09/29 07:18:51;;;;;;;34.13;17.57;;;;;;;12.10;79.65;99173.97;4990959;28;20219;-61
2022/09/29 07:21:20;;;;;;;29.73;16.60;;;;;;;12.13;79.11;99170.94;4991850;28;20212;-62
2022/09/29 07:23:50;;;;;;;37.73;17.47;;;;;;;12.04;79.57;99177.38;4991781;28;20209;-61
2022/09/29 07:26:17;;;;;;;31.90;17.10;;;;;;;12.06;80.01;99178.00;4991004;28;20214;-61
2022/09/29 07:28:46;;;;;;;44.90;17.63;;;;;;;12.06;80.13;99178.81;4989410;28;20213;-61
2022/09/29 07:31:16;;;;;;;32.23;18.30;;;;;;;12.03;80.19;99183.72;4988301;28;20229;-61
2022/09/29 07:33:45;;;;;;;36.10;19.33;;;;;;;12.04;80.58;99185.34;4991875;28;20696;-62
2022/09/29 07:36:15;;;;;;;37.80;19.67;;;;;;;12.14;80.42;99185.84;4992272;28;20237;-61
2022/09/29 07:38:45;;;;;;;34.27;19.57;;;;;;;12.30;79.45;99184.78;4992201;28;20213;-63
2022/09/29 07:41:14;;;;;;;39.83;20.43;;;;;;;12.40;78.83;99186.09;4991226;28;20213;-61
2022/09/29 07:43:43;;;;;;;36.03;20.87;;;;;;;12.34;78.79;99181.56;4989922;28;20210;-62
2022/09/29 07:46:11;;;;;;;33.50;19.03;;;;;;;12.34;78.93;99188.72;4991880;28;20233;-61
2022/09/29 07:48:39;;;;;;;38.17;21.03;;;;;;;12.42;78.32;99188.56;4991725;28;20220;-61
2022/09/29 07:51:11;;;;;;;36.97;19.90;;;;;;;12.46;77.95;99191.69;4991285;28;20225;-61
2022/09/29 07:53:39;;;;;;;35.90;20.67;;;;;;;12.37;77.88;99191.00;4991623;28;20198;-61
2022/09/29 07:56:08;;;;;;;36.37;20.53;;;;;;;12.32;78.72;99188.88;4991365;28;20234;-61
2022/09/29 07:58:38;;;;;;;37.83;19.63;;;;;;;12.27;78.85;99195.78;4990170;28;20210;-61
2022/09/29 08:01:09;;;;;;;34.80;20.13;;;;;;;12.29;78.71;99191.94;4990057;28;20206;-61
2022/09/29 08:03:38;;;;;;;34.87;20.20;;;;;;;12.37;78.78;99196.31;4991707;28;20206;-59
2022/09/29 08:06:06;;;;;;;34.13;18.93;;;;;;;12.26;79.31;99194.16;4992518;28;20229;-61
2022/09/29 08:08:34;;;;;;;37.67;19.50;;;;;;;12.33;78.98;99200.34;4989103;28;20295;-61
2022/09/29 08:11:03;;;;;;;34.77;19.13;;;;;;;12.38;79.22;99198.78;4990377;28;20277;-61
2022/09/29 08:13:32;;;;;;;35.50;19.73;;;;;;;12.44;78.95;99207.81;4990374;28;20229;-62
2022/09/29 08:16:03;;;;;;;34.60;20.63;;;;;;;12.46;78.36;99213.78;4990102;28;20319;-61
2022/09/29 08:18:32;;;;;;;32.60;18.70;;;;;;;12.56;77.65;99205.47;4991765;28;20205;-60
2022/09/29 08:21:00;;;;;;;32.47;18.03;;;;;;;12.64;76.59;99202.69;4990792;28;20711;-59
2022/09/29 08:23:31;;;;;;;34.07;18.27;;;;;;;12.65;76.22;99204.34;4990873;28;20248;-60
2022/09/29 08:26:01;;;;;;;36.33;17.70;;;;;;;12.51;76.85;99206.03;4982893;28;20209;-61
2022/09/29 08:28:29;;;;;;;34.77;18.87;;;;;;;12.56;78.05;99216.13;4991408;28;20213;-61
2022/09/29 08:31:03;;;;;;;33.17;18.40;;;;;;;12.62;77.91;99210.03;4989418;28;20214;-61
2022/09/29 08:33:32;;;;;;;35.10;19.83;;;;;;;12.68;77.73;99212.72;4990773;28;20332;-61
2022/09/29 08:36:02;;;;;;;35.63;18.87;;;;;;;12.67;77.61;99218.22;4988642;28;20257;-61
2022/09/29 08:38:31;;;;;;;32.93;18.93;;;;;;;12.73;77.53;99222.81;4989505;28;20207;-62
2022/09/29 08:41:03;;;;;;;32.27;19.27;;;;;;;12.74;76.89;99225.28;4987062;28;20623;-62
2022/09/29 08:43:37;;;;;;;34.40;19.37;;;;;;;12.68;76.66;99219.88;4984994;28;20696;-62
2022/09/29 08:46:12;;;;;;;32.27;18.70;;;;;;;12.75;76.17;99221.59;4991400;28;20214;-61
2022/09/29 08:48:43;;;;;;;34.33;20.00;;;;;;;12.77;75.91;99229.38;4990873;28;20232;-61
2022/09/29 08:51:29;;;;;;;39.43;19.77;;;;;;;12.83;75.94;99228.63;4990322;28;20206;-61
2022/09/29 08:54:20;;;;;;;30.90;18.80;;;;;;;12.81;75.68;99234.13;4984917;28;20639;-61
2022/09/29 08:57:05;;;;;;;31.37;19.17;;;;;;;12.80;75.52;99232.50;4983849;28;20601;-61
2022/09/29 08:59:33;;;;;;;35.57;19.80;;;;;;;12.85;75.66;99237.22;4991273;28;20622;-64
2022/09/29 09:02:49;;;;;;;33.77;19.80;;;;;;;12.88;75.06;99231.53;4990734;28;20827;-63
2022/09/29 09:06:00;;;;;;;28.17;17.70;;;;;;;12.86;75.19;99240.69;4924852;29;20244;-60
2022/09/29 09:08:42;;;;;;;31.33;18.80;;;;;;;12.95;74.85;99235.03;4933270;29;20211;-60
2022/09/29 09:11:29;;;;;;;36.37;19.70;;;;;;;12.98;75.35;99232.00;4978694;28;20384;-62
2022/09/29 09:14:08;;;;;;;29.60;18.53;;;;;;;13.09;74.95;99238.66;4994611;28;20272;-61
2022/09/29 09:16:43;;;;;;;31.43;18.43;;;;;;;13.20;73.97;99235.47;4994250;28;20611;-61
2022/09/29 09:19:40;;;;;;;43.57;24.47;;;;;;;13.33;73.63;99238.22;4994240;28;20214;-61
2022/09/29 09:22:20;;;;;;;39.73;25.10;;;;;;;13.40;74.04;99243.56;4994084;28;20815;-61
2022/09/29 09:24:56;;;;;;;43.53;24.10;;;;;;;13.45;74.16;99242.00;4992101;28;20202;-63
2022/09/29 09:27:26;;;;;;;43.57;26.43;;;;;;;13.52;73.58;99244.69;4989461;28;20258;-63
2022/09/29 09:30:03;;;;;;;46.63;26.03;;;;;;;13.63;73.43;99240.66;4999149;28;20210;-63
2022/09/29 09:32:37;;;;;;;41.73;24.83;;;;;;;13.70;72.89;99237.00;4990476;28;20635;-61
2022/09/29 09:35:28;;;;;;;41.60;25.13;;;;;;;13.79;71.93;99243.81;4994031;28;20283;-61
2022/09/29 09:38:02;;;;;;;39.13;25.17;;;;;;;13.93;71.49;99242.00;4994418;28;20203;-62
2022/09/29 09:40:38;;;;;;;43.30;26.40;;;;;;;14.01;71.57;99251.66;4993395;28;20265;-61
2022/09/29 09:43:11;;;;;;;45.20;25.47;;;;;;;14.06;71.20;99254.56;4990644;28;20202;-59
2022/09/29 09:45:47;;;;;;;45.03;26.23;;;;;;;14.03;70.44;99252.28;4994309;28;20636;-62
2022/09/29 09:48:21;;;;;;;44.23;26.27;;;;;;;14.01;70.69;99249.00;4994779;28;20224;-60
2022/09/29 09:50:54;;;;;;;46.73;27.80;;;;;;;13.97;70.55;99253.09;4993370;28;20771;-61
2022/09/29 09:53:28;;;;;;;46.80;26.90;;;;;;;13.92;71.29;99246.50;4994202;28;20210;-60
2022/09/29 09:56:08;;;;;;;46.40;28.27;;;;;;;13.94;70.85;99260.47;4992794;28;20254;-60
2022/09/29 09:59:05;;;;;;;46.47;27.97;;;;;;;13.97;70.75;99259.25;4986238;28;20245;-61
2022/09/29 10:01:33;;;;;;;48.20;27.80;;;;;;;13.99;71.07;99254.50;4993345;28;20218;-60
2022/09/29 10:04:02;;;;;;;47.47;27.50;;;;;;;14.07;70.31;99264.22;4993923;28;20657;-60
2022/09/29 10:06:31;;;;;;;45.00;26.97;;;;;;;14.07;70.74;99253.53;4993825;28;20208;-62
2022/09/29 10:08:59;;;;;;;47.07;26.10;;;;;;;14.12;70.48;99256.41;4993990;28;20219;-61
2022/09/29 10:11:30;;;;;;;44.80;26.83;;;;;;;14.11;70.64;99255.59;4992571;28;20216;-61
2022/09/29 10:14:01;;;;;;;40.40;25.83;;;;;;;14.17;69.92;99248.63;4988751;28;20271;-61
2022/09/29 10:16:40;;;;;;;46.60;27.27;;;;;;;14.29;70.18;99250.53;4992136;28;20733;-61
2022/09/29 10:19:09;;;;;;;44.07;26.70;;;;;;;14.38;69.16;99243.16;4993631;28;20227;-60
2022/09/29 10:21:40;;;;;;;45.50;26.93;;;;;;;14.57;69.05;99252.25;4992807;28;20216;-60
2022/09/29 10:24:22;;;;;;;39.67;25.70;;;;;;;14.80;67.69;99260.69;4992693;28;20221;-62
2022/09/29 10:26:54;;;;;;;43.33;23.80;;;;;;;15.03;66.86;99260.28;4990298;28;20850;-60
2022/09/29 10:29:31;;;;;;;34.33;21.83;;;;;;;15.15;65.34;99257.81;4993079;28;20209;-59
2022/09/29 10:32:05;;;;;;;43.70;26.30;;;;;;;15.06;66.18;99259.84;4990909;28;20287;-60
2022/09/29 10:34:36;;;;;;;37.83;24.33;;;;;;;15.06;66.23;99263.34;4982181;28;20212;-59
2022/09/29 10:37:19;;;;;;;35.17;21.77;;;;;;;15.04;65.78;99256.56;4992772;28;20232;-59
2022/09/29 10:39:48;;;;;;;29.73;18.77;;;;;;;15.00;65.45;99260.69;4991762;28;20702;-60
2022/09/29 10:42:20;;;;;;;32.23;20.63;;;;;;;15.00;65.19;99256.19;4989332;28;20209;-60
2022/09/29 10:44:51;;;;;;;33.57;19.33;;;;;;;14.99;64.89;99269.72;4979465;28;20213;-60
2022/09/29 10:47:22;;;;;;;37.67;21.43;;;;;;;15.03;65.55;99269.13;4992163;28;20608;-60
2022/09/29 10:50:09;;;;;;;33.03;20.63;;;;;;;15.09;65.92;99264.81;4988851;28;20280;-60
2022/09/29 10:52:42;;;;;;;33.40;19.60;;;;;;;15.14;65.77;99267.66;4989475;28;20214;-60
2022/09/29 10:55:18;;;;;;;34.63;20.23;;;;;;;15.16;65.74;99270.94;4991995;28;20214;-60
2022/09/29 10:57:47;;;;;;;32.57;19.90;;;;;;;15.23;65.42;99269.09;4992203;28;20304;-60
2022/09/29 11:00:26;;;;;;;30.47;19.53;;;;;;;15.34;64.77;99260.44;4990887;28;20218;-60
2022/09/29 11:03:03;;;;;;;33.47;19.53;;;;;;;15.55;63.82;99258.59;4991842;28;20321;-60
2022/09/29 11:05:31;;;;;;;31.07;19.70;;;;;;;15.69;63.81;99255.69;4992472;28;20693;-60
2022/09/29 11:08:02;;;;;;;34.37;20.83;;;;;;;15.89;63.02;99260.97;4991303;28;20651;-61
2022/09/29 11:10:32;;;;;;;34.33;19.27;;;;;;;16.84;60.12;99273.41;4990735;28;20217;-61
2022/09/29 11:13:29;;;;;;;33.20;19.03;;;;;;;17.20;58.09;99264.69;4986956;28;20214;-60
2022/09/29 11:16:04;;;;;;;29.13;18.83;;;;;;;17.43;56.85;99264.03;4990776;28;20221;-61
2022/09/29 11:18:36;;;;;;;33.67;19.13;;;;;;;17.39;56.90;99260.19;4992279;28;20603;-61
2022/09/29 11:21:32;;;;;;;28.93;19.17;;;;;;;17.36;57.12;99271.31;4991741;28;20202;-61
2022/09/29 11:24:06;;;;;;;29.23;18.77;;;;;;;17.32;56.79;99261.28;4959347;28;20206;-61
2022/09/29 11:26:40;;;;;;;26.80;18.20;;;;;;;17.54;55.97;99260.63;4989072;28;20201;-61
2022/09/29 11:29:36;;;;;;;27.07;18.00;;;;;;;17.57;55.19;99270.09;4993327;28;20212;-61
2022/09/29 11:32:17;;;;;;;26.00;15.77;;;;;;;17.62;54.86;99268.41;4984241;28;20789;-61
2022/09/29 11:34:58;;;;;;;24.13;15.90;;;;;;;17.68;54.89;99264.00;4991735;28;20209;-61
2022/09/29 11:37:40;;;;;;;24.10;14.60;;;;;;;17.66;54.12;99266.94;4991947;28;20234;-61
2022/09/29 11:40:15;;;;;;;31.17;17.50;;;;;;;17.53;55.10;99263.53;4991136;28;20217;-62
2022/09/29 11:42:57;;;;;;;31.07;18.40;;;;;;;17.44;55.76;99263.00;4989005;28;20267;-61
2022/09/29 11:45:32;;;;;;;25.53;17.50;;;;;;;17.22;56.91;99265.28;4988675;28;20213;-61
2022/09/29 11:48:34;;;;;;;29.20;18.30;;;;;;;17.20;57.41;99269.22;4991363;28;20280;-62